Time,TemperatureF,DewpointF,PressureIn,WindDirection,WindDirectionDegrees,WindSpeedMPH,WindSpeedGustMPH,Humidity,HourlyPrecipIn,Conditions,Clouds,dailyrainin,SoftwareType,DateUTC
2013-03-20 00:00:00,73.6,62.0,30.00,North,0,0.0,0.0,67,0.00,,SCT120,0.00,VWS V14.01,2013-03-20 04:00:00,
2013-03-20 00:05:00,73.4,62.2,30.00,North,0,0.0,0.0,68,0.00,,SCT120,0.00,VWS V14.01,2013-03-20 04:05:00,
2013-03-20 00:10:00,73.4,62.2,30.00,North,0,0.0,0.0,68,0.00,,SCT120,0.00,VWS V14.01,2013-03-20 04:10:00,
2013-03-20 00:15:00,73.4,62.2,30.00,North,0,0.0,0.0,68,0.00,,SCT120,0.00,VWS V14.01,2013-03-20 04:15:00,
2013-03-20 00:20:00,73.2,62.5,30.00,North,0,0.0,0.0,69,0.00,,SCT120,0.00,VWS V14.01,2013-03-20 04:20:00,
2013-03-20 00:25:00,73.2,62.5,30.00,North,0,0.0,0.0,69,0.00,,SCT120,0.00,VWS V14.01,2013-03-20 04:25:00,
2013-03-20 00:30:00,72.9,62.1,30.00,North,0,0.0,0.0,69,0.00,,SCT120,0.00,VWS V14.01,2013-03-20 04:30:00,
2013-03-20 00:35:00,72.9,62.5,30.00,North,0,0.0,0.0,70,0.00,,SCT120,0.00,VWS V14.01,2013-03-20 04:35:00,
2013-03-20 00:40:00,72.9,62.5,30.00,North,0,0.0,0.0,70,0.00,,SCT120,0.00,VWS V14.01,2013-03-20 04:40:00,
2013-03-20 00:45:00,72.7,62.3,30.00,North,0,0.0,0.0,70,0.00,,SCT120,0.00,VWS V14.01,2013-03-20 04:45:00,
2013-03-20 00:50:00,72.7,62.3,30.00,North,0,0.0,0.0,70,0.00,,SCT120,0.00,VWS V14.01,2013-03-20 04:50:00,
2013-03-20 00:55:00,72.7,62.7,29.97,North,0,0.0,0.0,71,0.00,,SCT120,0.00,VWS V14.01,2013-03-20 04:55:00,
2013-03-20 01:00:00,72.7,62.7,29.97,North,0,0.0,0.0,71,0.00,,SCT120,0.00,VWS V14.01,2013-03-20 05:00:00,
2013-03-20 01:05:00,72.7,62.7,29.97,North,0,0.0,0.0,71,0.00,,SCT120,0.00,VWS V14.01,2013-03-20 05:05:00,
2013-03-20 01:10:00,72.5,62.6,29.97,North,0,0.0,0.0,71,0.00,,SCT120,0.00,VWS V14.01,2013-03-20 05:10:00,
2013-03-20 01:15:00,72.1,61.8,29.97,North,0,0.0,0.0,70,0.00,,SCT120,0.00,VWS V14.01,2013-03-20 05:15:00,
2013-03-20 01:20:00,72.0,62.0,29.97,North,0,0.0,0.0,71,0.00,,SCT120,0.00,VWS V14.01,2013-03-20 05:20:00,
2013-03-20 01:25:00,72.0,62.5,29.97,North,0,0.0,0.0,72,0.00,,SCT120,0.00,VWS V14.01,2013-03-20 05:25:00,
2013-03-20 01:30:00,72.0,62.5,29.97,North,0,0.0,0.0,72,0.00,,SCT120,0.00,VWS V14.01,2013-03-20 05:30:00,
2013-03-20 01:35:00,72.1,63.0,29.97,North,0,0.0,0.0,73,0.00,,SCT120,0.00,VWS V14.01,2013-03-20 05:35:00,
2013-03-20 01:40:00,72.1,63.0,29.97,North,0,0.0,0.0,73,0.00,,SCT120,0.00,VWS V14.01,2013-03-20 05:40:00,
2013-03-20 01:45:00,71.8,62.7,29.97,North,0,0.0,0.0,73,0.00,,SCT120,0.00,VWS V14.01,2013-03-20 05:45:00,
2013-03-20 01:50:00,72.0,62.8,29.97,North,0,0.0,0.0,73,0.00,,SCT120,0.00,VWS V14.01,2013-03-20 05:50:00,
2013-03-20 01:55:00,71.8,62.7,29.94,North,0,0.0,0.0,73,0.00,,SCT120,0.00,VWS V14.01,2013-03-20 05:55:00,
2013-03-20 02:00:00,71.8,63.1,29.94,North,0,0.0,0.0,74,0.00,,SCT120,0.00,VWS V14.01,2013-03-20 06:00:00,
2013-03-20 02:05:00,71.6,62.9,29.94,North,0,0.0,0.0,74,0.00,,SCT120,0.00,VWS V14.01,2013-03-20 06:05:00,
2013-03-20 02:10:00,71.6,62.9,29.94,North,0,0.0,0.0,74,0.00,,SCT120,0.00,VWS V14.01,2013-03-20 06:10:00,
2013-03-20 02:15:00,71.6,63.3,29.94,North,0,0.0,0.0,75,0.00,,SCT120,0.00,VWS V14.01,2013-03-20 06:15:00,
2013-03-20 02:20:00,71.4,63.1,29.94,North,0,0.0,0.0,75,0.00,,SCT120,0.00,VWS V14.01,2013-03-20 06:20:00,
2013-03-20 02:25:00,71.4,63.5,29.94,North,0,0.0,0.0,76,0.00,,SCT120,0.00,VWS V14.01,2013-03-20 06:25:00,
2013-03-20 02:30:00,71.4,63.5,29.94,North,0,0.0,0.0,76,0.00,,SCT120,0.00,VWS V14.01,2013-03-20 06:30:00,
2013-03-20 02:35:00,71.2,63.3,29.94,North,0,0.0,0.0,76,0.00,,SCT120,0.00,VWS V14.01,2013-03-20 06:35:00,
2013-03-20 02:40:00,71.1,63.5,29.94,North,0,0.0,0.0,77,0.00,,SCT120,0.00,VWS V14.01,2013-03-20 06:40:00,
2013-03-20 02:45:00,71.1,63.5,29.94,North,0,0.0,0.0,77,0.00,,SCT120,0.00,VWS V14.01,2013-03-20 06:45:00,
2013-03-20 02:50:00,71.2,63.7,29.94,North,0,0.0,0.0,77,0.00,,SCT120,0.00,VWS V14.01,2013-03-20 06:50:00,
2013-03-20 02:55:00,71.4,64.2,29.94,North,0,0.0,0.0,78,0.00,,SCT120,0.00,VWS V14.01,2013-03-20 06:55:00,
2013-03-20 03:00:00,71.6,64.4,29.94,North,0,0.0,0.0,78,0.00,,SCT120,0.00,VWS V14.01,2013-03-20 07:00:00,
2013-03-20 03:05:00,71.4,64.6,29.94,North,0,0.0,0.0,79,0.00,,SCT120,0.00,VWS V14.01,2013-03-20 07:05:00,
2013-03-20 03:10:00,71.2,64.4,29.94,North,0,0.0,0.0,79,0.00,,SCT120,0.00,VWS V14.01,2013-03-20 07:10:00,
2013-03-20 03:15:00,71.4,64.6,29.94,North,0,0.0,0.0,79,0.00,,SCT120,0.00,VWS V14.01,2013-03-20 07:15:00,
2013-03-20 03:20:00,71.6,64.8,29.94,North,0,0.0,0.0,79,0.00,,SCT120,0.00,VWS V14.01,2013-03-20 07:20:00,
2013-03-20 03:25:00,71.6,64.8,29.94,North,0,0.0,0.0,79,0.00,,SCT120,0.00,VWS V14.01,2013-03-20 07:25:00,
2013-03-20 03:30:00,71.6,64.8,29.94,North,0,0.0,0.0,79,0.00,,SCT120,0.00,VWS V14.01,2013-03-20 07:30:00,
2013-03-20 03:35:00,71.8,64.9,29.94,North,0,0.0,0.0,79,0.00,,SCT120,0.00,VWS V14.01,2013-03-20 07:35:00,
2013-03-20 03:40:00,71.8,64.9,29.94,North,0,0.0,0.0,79,0.00,,SCT120,0.00,VWS V14.01,2013-03-20 07:40:00,
2013-03-20 03:45:00,71.8,64.9,29.94,North,0,0.0,0.0,79,0.00,,SCT120,0.00,VWS V14.01,2013-03-20 07:45:00,
2013-03-20 03:50:00,71.8,65.3,29.94,North,0,0.0,0.0,80,0.00,,SCT120,0.00,VWS V14.01,2013-03-20 07:50:00,
2013-03-20 03:55:00,71.8,65.3,29.91,North,0,0.0,0.0,80,0.00,,SCT120,0.00,VWS V14.01,2013-03-20 07:55:00,
2013-03-20 04:00:00,71.6,65.1,29.91,North,0,0.0,0.0,80,0.00,,SCT120,0.00,VWS V14.01,2013-03-20 08:00:00,
2013-03-20 04:05:00,71.8,65.3,29.91,North,0,0.0,0.0,80,0.00,,SCT120,0.00,VWS V14.01,2013-03-20 08:05:00,
2013-03-20 04:10:00,71.8,65.6,29.94,North,0,0.0,0.0,81,0.00,,SCT120,0.00,VWS V14.01,2013-03-20 08:10:00,
2013-03-20 04:15:00,71.8,65.6,29.94,North,0,0.0,0.0,81,0.00,,SCT120,0.00,VWS V14.01,2013-03-20 08:15:00,
2013-03-20 04:20:00,72.0,65.8,29.94,North,0,0.0,0.0,81,0.00,,SCT120,0.00,VWS V14.01,2013-03-20 08:20:00,
2013-03-20 04:25:00,72.0,65.8,29.94,North,0,0.0,0.0,81,0.00,,SCT120,0.00,VWS V14.01,2013-03-20 08:25:00,
2013-03-20 04:30:00,72.0,65.8,29.94,North,0,0.0,0.0,81,0.00,,SCT120,0.00,VWS V14.01,2013-03-20 08:30:00,
2013-03-20 04:35:00,71.8,65.6,29.94,North,0,0.0,0.0,81,0.00,,SCT120,0.00,VWS V14.01,2013-03-20 08:35:00,
2013-03-20 04:40:00,71.6,65.5,29.94,North,0,0.0,0.0,81,0.00,,SCT120,0.00,VWS V14.01,2013-03-20 08:40:00,
2013-03-20 04:45:00,71.4,65.3,29.94,North,0,0.0,0.0,81,0.00,,SCT120,0.00,VWS V14.01,2013-03-20 08:45:00,
2013-03-20 04:50:00,71.4,65.6,29.94,North,0,0.0,0.0,82,0.00,,SCT120,0.00,VWS V14.01,2013-03-20 08:50:00,
2013-03-20 04:55:00,71.2,65.5,29.94,North,0,0.0,0.0,82,0.00,,SCT120,0.00,VWS V14.01,2013-03-20 08:55:00,
2013-03-20 05:00:00,71.4,65.6,29.94,North,0,0.0,0.0,82,0.00,,SCT120,0.00,VWS V14.01,2013-03-20 09:00:00,
2013-03-20 05:05:00,71.4,65.6,29.94,North,0,0.0,0.0,82,0.00,,SCT120,0.00,VWS V14.01,2013-03-20 09:05:00,
2013-03-20 05:10:00,71.2,65.5,29.94,North,0,0.0,0.0,82,0.00,,SCT120,0.00,VWS V14.01,2013-03-20 09:10:00,
2013-03-20 05:15:00,71.2,65.5,29.94,North,0,0.0,0.0,82,0.00,,SCT120,0.00,VWS V14.01,2013-03-20 09:15:00,
2013-03-20 05:20:00,71.1,65.3,29.94,North,0,0.0,0.0,82,0.00,,SCT120,0.00,VWS V14.01,2013-03-20 09:20:00,
2013-03-20 05:25:00,70.9,65.1,29.94,North,0,0.0,0.0,82,0.00,,SCT120,0.00,VWS V14.01,2013-03-20 09:25:00,
2013-03-20 05:30:00,70.9,65.1,29.94,North,0,0.0,0.0,82,0.00,,SCT120,0.00,VWS V14.01,2013-03-20 09:30:00,
2013-03-20 05:35:00,71.1,65.3,29.94,North,0,0.0,0.0,82,0.00,,SCT120,0.00,VWS V14.01,2013-03-20 09:35:00,
2013-03-20 05:41:00,71.1,65.3,29.94,North,0,0.0,0.0,82,0.00,,SCT120,0.00,VWS V14.01,2013-03-20 09:41:00,
2013-03-20 05:46:00,71.1,65.6,29.94,North,0,0.0,0.0,83,0.00,,SCT120,0.00,VWS V14.01,2013-03-20 09:46:00,
2013-03-20 05:51:00,70.7,64.9,29.94,North,0,0.0,0.0,82,0.00,,SCT120,0.00,VWS V14.01,2013-03-20 09:51:00,
2013-03-20 05:56:00,70.7,64.9,29.94,North,0,0.0,0.0,82,0.00,,SCT120,0.00,VWS V14.01,2013-03-20 09:56:00,
2013-03-20 06:01:00,70.7,64.9,29.94,North,0,0.0,0.0,82,0.00,,SCT120,0.00,VWS V14.01,2013-03-20 10:01:00,
2013-03-20 06:06:00,70.5,64.8,29.94,North,0,0.0,0.0,82,0.00,,SCT120,0.00,VWS V14.01,2013-03-20 10:06:00,
2013-03-20 06:11:00,70.3,64.6,29.94,North,0,0.0,0.0,82,0.00,,SCT120,0.00,VWS V14.01,2013-03-20 10:11:00,
2013-03-20 06:16:00,70.3,64.6,29.94,North,0,0.0,0.0,82,0.00,,SCT120,0.00,VWS V14.01,2013-03-20 10:16:00,
2013-03-20 06:21:00,70.3,64.6,29.94,North,0,0.0,0.0,82,0.00,,SCT120,0.00,VWS V14.01,2013-03-20 10:21:00,
2013-03-20 06:26:00,70.3,64.6,29.94,North,0,0.0,0.0,82,0.00,,SCT120,0.00,VWS V14.01,2013-03-20 10:26:00,
2013-03-20 06:31:00,70.3,64.6,29.94,North,0,0.0,0.0,82,0.00,,SCT120,0.00,VWS V14.01,2013-03-20 10:31:00,
2013-03-20 06:36:00,70.3,64.6,29.94,North,0,0.0,0.0,82,0.00,,SCT120,0.00,VWS V14.01,2013-03-20 10:36:00,
2013-03-20 06:41:00,70.3,64.6,29.94,North,0,0.0,0.0,82,0.00,,SCT120,0.00,VWS V14.01,2013-03-20 10:41:00,
2013-03-20 06:46:00,70.2,64.4,29.94,North,0,0.0,0.0,82,0.00,,SCT120,0.00,VWS V14.01,2013-03-20 10:46:00,
2013-03-20 06:51:00,70.2,64.4,29.94,North,0,0.0,0.0,82,0.00,,SCT120,0.00,VWS V14.01,2013-03-20 10:51:00,
2013-03-20 06:56:00,70.3,64.9,29.94,North,0,0.0,0.0,83,0.00,,SCT120,0.00,VWS V14.01,2013-03-20 10:56:00,
2013-03-20 07:01:00,70.5,65.1,29.94,North,0,0.0,0.0,83,0.00,,SCT120,0.00,VWS V14.01,2013-03-20 11:01:00,
2013-03-20 07:06:00,70.9,65.8,29.94,North,0,0.0,0.0,84,0.00,,SCT120,0.00,VWS V14.01,2013-03-20 11:06:00,
2013-03-20 07:11:00,71.2,66.2,29.94,North,0,0.0,0.0,84,0.00,,SCT120,0.00,VWS V14.01,2013-03-20 11:11:00,
2013-03-20 07:16:00,71.6,66.5,29.94,North,0,0.0,0.0,84,0.00,,SCT120,0.00,VWS V14.01,2013-03-20 11:16:00,
2013-03-20 07:21:00,72.0,66.5,29.94,North,0,0.0,0.0,83,0.00,,SCT120,0.00,VWS V14.01,2013-03-20 11:21:00,
2013-03-20 07:26:00,72.1,66.7,29.94,North,0,0.0,0.0,83,0.00,,SCT120,0.00,VWS V14.01,2013-03-20 11:26:00,
2013-03-20 07:31:00,72.5,67.1,29.94,North,0,0.0,0.0,83,0.00,,SCT120,0.00,VWS V14.01,2013-03-20 11:31:00,
2013-03-20 07:36:00,72.9,67.4,29.94,North,0,0.0,0.0,83,0.00,,SCT120,0.00,VWS V14.01,2013-03-20 11:36:00,
2013-03-20 07:41:00,73.2,67.8,29.97,North,0,0.0,0.0,83,0.00,,SCT120,0.00,VWS V14.01,2013-03-20 11:41:00,
2013-03-20 07:46:00,73.6,67.8,29.97,North,0,0.0,0.0,82,0.00,,SCT120,0.00,VWS V14.01,2013-03-20 11:46:00,
2013-03-20 07:52:00,74.1,67.9,29.97,North,0,0.0,0.0,81,0.00,,SCT120,0.00,VWS V14.01,2013-03-20 11:52:00,
2013-03-20 07:57:00,74.5,68.3,29.97,North,0,0.0,0.0,81,0.00,,SCT120,0.00,VWS V14.01,2013-03-20 11:57:00,
2013-03-20 08:02:00,75.0,68.4,29.97,North,0,0.0,0.0,80,0.00,,SCT120,0.00,VWS V14.01,2013-03-20 12:02:00,
2013-03-20 08:07:00,75.4,68.1,29.97,North,0,0.0,0.0,78,0.00,,SCT120,0.00,VWS V14.01,2013-03-20 12:07:00,
2013-03-20 08:12:00,75.7,66.9,29.97,North,0,0.0,0.0,74,0.00,,SCT120,0.00,VWS V14.01,2013-03-20 12:12:00,
2013-03-20 08:17:00,75.9,65.8,29.97,North,0,0.0,0.0,71,0.00,,SCT120,0.00,VWS V14.01,2013-03-20 12:17:00,
2013-03-20 08:22:00,76.6,65.7,29.97,North,0,0.0,0.0,69,0.00,,SCT120,0.00,VWS V14.01,2013-03-20 12:22:00,
2013-03-20 08:27:00,76.8,65.0,29.94,North,0,0.0,0.0,67,0.00,,SCT120,0.00,VWS V14.01,2013-03-20 12:27:00,
2013-03-20 08:32:00,77.4,63.8,29.94,North,0,0.0,0.0,63,0.00,,SCT120,0.00,VWS V14.01,2013-03-20 12:32:00,
2013-03-20 08:37:00,77.7,63.2,29.94,North,0,0.0,0.0,61,0.00,,SCT120,0.00,VWS V14.01,2013-03-20 12:37:00,
2013-03-20 08:42:00,78.1,61.6,29.97,North,0,0.0,0.0,57,0.00,,SCT120,0.00,VWS V14.01,2013-03-20 12:42:00,
2013-03-20 08:47:00,78.3,60.8,29.97,North,0,0.0,0.0,55,0.00,,SCT120,0.00,VWS V14.01,2013-03-20 12:47:00,
2013-03-20 08:52:00,78.8,60.8,29.97,North,0,0.0,0.0,54,0.00,,SCT120,0.00,VWS V14.01,2013-03-20 12:52:00,
2013-03-20 08:57:00,79.2,60.6,29.97,North,0,0.0,0.0,53,0.00,,SCT120,0.00,VWS V14.01,2013-03-20 12:57:00,
2013-03-20 09:02:00,79.2,58.9,29.97,North,0,0.0,0.0,50,0.00,,SCT120,0.00,VWS V14.01,2013-03-20 13:02:00,
2013-03-20 09:07:00,79.7,57.7,29.97,North,0,0.0,0.0,47,0.00,,SCT120,0.00,VWS V14.01,2013-03-20 13:07:00,
2013-03-20 09:12:00,80.2,57.6,29.97,North,0,0.0,0.0,46,0.00,,SCT120,0.00,VWS V14.01,2013-03-20 13:12:00,
2013-03-20 09:17:00,80.8,57.5,29.97,North,0,0.0,0.0,45,0.00,,SCT120,0.00,VWS V14.01,2013-03-20 13:17:00,
2013-03-20 09:22:00,80.6,55.4,29.97,North,0,0.0,0.0,42,0.00,,SCT120,0.00,VWS V14.01,2013-03-20 13:22:00,
2013-03-20 09:27:00,80.8,55.6,29.97,North,0,0.0,0.0,42,0.00,,SCT120,0.00,VWS V14.01,2013-03-20 13:27:00,
2013-03-20 09:32:00,81.3,56.1,29.97,North,0,0.0,0.0,42,0.00,,SCT120,0.00,VWS V14.01,2013-03-20 13:32:00,
2013-03-20 09:37:00,82.0,54.7,29.97,North,0,0.0,0.0,39,0.00,,SCT120,0.00,VWS V14.01,2013-03-20 13:37:00,
2013-03-20 09:42:00,82.2,50.3,29.97,North,0,0.0,0.0,33,0.00,,SCT120,0.00,VWS V14.01,2013-03-20 13:42:00,
2013-03-20 09:47:00,82.6,48.9,29.97,North,0,0.0,0.0,31,0.00,,SCT120,0.00,VWS V14.01,2013-03-20 13:47:00,
2013-03-20 09:52:00,82.9,47.5,29.97,North,0,0.0,0.0,29,0.00,,SCT120,0.00,VWS V14.01,2013-03-20 13:52:00,
2013-03-20 09:57:00,83.5,47.9,29.97,North,0,0.0,0.0,29,0.00,,SCT120,0.00,VWS V14.01,2013-03-20 13:57:00,
2013-03-20 10:02:00,84.0,47.4,29.97,North,0,0.0,0.0,28,0.00,,SCT120,0.00,VWS V14.01,2013-03-20 14:02:00,
2013-03-20 10:07:00,84.7,44.0,29.97,North,0,0.0,0.0,24,0.00,,SCT120,0.00,VWS V14.01,2013-03-20 14:07:00,
2013-03-20 10:12:00,84.9,43.0,29.97,North,0,0.0,0.0,23,0.00,,SCT120,0.00,VWS V14.01,2013-03-20 14:12:00,
2013-03-20 10:17:00,85.5,43.5,29.97,North,0,0.0,0.0,23,0.00,,SCT120,0.00,VWS V14.01,2013-03-20 14:17:00,
2013-03-20 10:23:00,84.7,42.9,29.97,North,0,0.0,0.0,23,0.00,,SCT120,0.00,VWS V14.01,2013-03-20 14:23:00,
2013-03-20 10:28:00,83.7,44.2,29.97,North,0,0.0,0.0,25,0.00,,SCT120,0.00,VWS V14.01,2013-03-20 14:28:00,
2013-03-20 10:33:00,83.1,46.7,29.97,North,0,0.0,0.0,28,0.00,,SCT120,0.00,VWS V14.01,2013-03-20 14:33:00,
2013-03-20 10:38:00,82.9,47.5,29.97,North,0,0.0,0.0,29,0.00,,SCT120,0.00,VWS V14.01,2013-03-20 14:38:00,
2013-03-20 10:43:00,82.9,47.5,29.97,North,0,0.0,0.0,29,0.00,,SCT120,0.00,VWS V14.01,2013-03-20 14:43:00,
2013-03-20 10:48:00,84.0,48.4,29.97,North,0,0.0,0.0,29,0.00,,SCT120,0.00,VWS V14.01,2013-03-20 14:48:00,
2013-03-20 10:53:00,84.6,44.9,29.97,North,0,0.0,0.0,25,0.00,,SCT120,0.00,VWS V14.01,2013-03-20 14:53:00,
2013-03-20 10:58:00,85.1,43.2,29.97,North,0,0.0,0.0,23,0.00,,SCT120,0.00,VWS V14.01,2013-03-20 14:58:00,
2013-03-20 11:03:00,86.2,40.5,29.97,North,0,0.0,0.0,20,0.00,,SCT120,0.00,VWS V14.01,2013-03-20 15:03:00,
2013-03-20 11:08:00,87.4,40.2,29.97,North,0,0.0,0.0,19,0.00,,SCT120,0.00,VWS V14.01,2013-03-20 15:08:00,
2013-03-20 11:13:00,87.1,38.5,29.97,North,0,0.0,0.0,18,0.00,,SCT120,0.00,VWS V14.01,2013-03-20 15:13:00,
2013-03-20 11:18:00,87.3,40.0,29.97,North,0,0.0,0.0,19,0.00,,SCT120,0.00,VWS V14.01,2013-03-20 15:18:00,
2013-03-20 11:23:00,88.2,39.4,29.97,North,0,0.0,0.0,18,0.00,,SCT120,0.00,VWS V14.01,2013-03-20 15:23:00,
2013-03-20 11:28:00,87.4,38.8,29.97,North,0,0.0,0.0,18,0.00,,SCT120,0.00,VWS V14.01,2013-03-20 15:28:00,
2013-03-20 11:33:00,86.4,39.3,29.97,North,0,0.0,0.0,19,0.00,,SCT120,0.00,VWS V14.01,2013-03-20 15:33:00,
2013-03-20 11:38:00,87.3,40.0,29.97,North,0,0.0,0.0,19,0.00,,SCT120,0.00,VWS V14.01,2013-03-20 15:38:00,
2013-03-20 11:43:00,86.9,38.3,29.97,North,0,0.0,0.0,18,0.00,,SCT120,0.00,VWS V14.01,2013-03-20 15:43:00,
2013-03-20 11:48:00,87.1,39.9,29.97,North,0,0.0,0.0,19,0.00,,SCT120,0.00,VWS V14.01,2013-03-20 15:48:00,
2013-03-20 11:53:00,87.1,38.5,29.97,North,0,0.0,0.0,18,0.00,,SCT120,0.00,VWS V14.01,2013-03-20 15:53:00,
2013-03-20 11:58:00,86.5,39.4,29.94,North,0,0.0,0.0,19,0.00,,SCT120,0.00,VWS V14.01,2013-03-20 15:58:00,
2013-03-20 12:03:00,86.4,39.3,29.94,North,0,0.0,0.0,19,0.00,,SCT120,0.00,VWS V14.01,2013-03-20 16:03:00,
2013-03-20 12:08:00,86.2,39.1,29.94,North,0,0.0,0.0,19,0.00,,SCT120,0.00,VWS V14.01,2013-03-20 16:08:00,
2013-03-20 12:13:00,86.4,39.3,29.94,North,0,0.0,0.0,19,0.00,,SCT120,0.00,VWS V14.01,2013-03-20 16:13:00,
2013-03-20 12:18:00,86.0,39.0,29.94,North,0,0.0,0.0,19,0.00,,SCT120,0.00,VWS V14.01,2013-03-20 16:18:00,
2013-03-20 12:23:00,86.2,39.1,29.94,North,0,0.0,0.0,19,0.00,,SCT120,0.00,VWS V14.01,2013-03-20 16:23:00,
2013-03-20 12:28:00,87.6,40.3,29.94,North,0,0.0,0.0,19,0.00,,SCT120,0.00,VWS V14.01,2013-03-20 16:28:00,
2013-03-20 12:33:00,89.1,40.1,29.94,North,0,0.0,0.0,18,0.00,,SCT120,0.00,VWS V14.01,2013-03-20 16:33:00,
2013-03-20 12:38:00,88.5,35.0,29.91,North,0,0.0,0.0,15,0.00,,SCT120,0.00,VWS V14.01,2013-03-20 16:38:00,
2013-03-20 12:43:00,88.0,39.2,29.91,North,0,0.0,0.0,18,0.00,,SCT120,0.00,VWS V14.01,2013-03-20 16:43:00,
2013-03-20 12:48:00,88.2,39.4,29.91,North,0,0.0,0.0,18,0.00,,SCT120,0.00,VWS V14.01,2013-03-20 16:48:00,
2013-03-20 12:53:00,89.1,40.1,29.91,North,0,0.0,0.0,18,0.00,,SCT120,0.00,VWS V14.01,2013-03-20 16:53:00,
2013-03-20 12:58:00,89.4,32.2,29.91,North,0,0.0,0.0,13,0.00,,SCT120,0.00,VWS V14.01,2013-03-20 16:58:00,
2013-03-20 13:03:00,90.1,26.3,29.91,North,0,0.0,0.0,10,0.00,,SCT120,0.00,VWS V14.01,2013-03-20 17:03:00,
2013-03-20 13:08:00,90.7,26.7,29.91,North,0,0.0,0.0,10,0.00,,SCT120,0.00,VWS V14.01,2013-03-20 17:08:00,
2013-03-20 13:13:00,91.4,18.8,29.91,North,0,0.0,0.0,7,0.00,,SCT120,0.00,VWS V14.01,2013-03-20 17:13:00,
2013-03-20 13:18:00,91.8,19.0,29.91,North,0,0.0,0.0,7,0.00,,SCT120,0.00,VWS V14.01,2013-03-20 17:18:00,
2013-03-20 13:23:00,92.1,19.3,29.88,North,0,0.0,0.0,7,0.00,,SCT120,0.00,VWS V14.01,2013-03-20 17:23:00,
2013-03-20 13:28:00,92.3,19.4,29.88,North,0,0.0,0.0,7,0.00,,SCT120,0.00,VWS V14.01,2013-03-20 17:28:00,
2013-03-20 13:33:00,92.7,19.7,29.88,North,0,0.0,0.0,7,0.00,,SCT120,0.00,VWS V14.01,2013-03-20 17:33:00,
2013-03-20 13:38:00,92.7,19.7,29.88,North,0,0.0,0.0,7,0.00,,SCT120,0.00,VWS V14.01,2013-03-20 17:38:00,
2013-03-20 13:43:00,92.8,19.8,29.88,North,0,0.0,0.0,7,0.00,,SCT120,0.00,VWS V14.01,2013-03-20 17:43:00,
2013-03-20 13:48:00,92.7,19.7,29.88,North,0,0.0,0.0,7,0.00,,SCT120,0.00,VWS V14.01,2013-03-20 17:48:00,
2013-03-20 13:53:00,92.5,19.6,29.88,North,0,0.0,0.0,7,0.00,,SCT120,0.00,VWS V14.01,2013-03-20 17:53:00,
2013-03-20 13:58:00,92.7,19.7,29.88,North,0,0.0,0.0,7,0.00,,SCT120,0.00,VWS V14.01,2013-03-20 17:58:00,
2013-03-20 14:03:00,92.8,19.8,29.88,North,0,0.0,0.0,7,0.00,,SCT120,0.00,VWS V14.01,2013-03-20 18:03:00,
2013-03-20 14:08:00,93.0,20.0,29.88,North,0,0.0,0.0,7,0.00,,SCT120,0.00,VWS V14.01,2013-03-20 18:08:00,
2013-03-20 14:13:00,92.8,19.8,29.88,North,0,0.0,0.0,7,0.00,,SCT120,0.00,VWS V14.01,2013-03-20 18:13:00,
2013-03-20 14:18:00,93.2,16.5,29.88,North,0,0.0,0.0,6,0.00,,SCT120,0.00,VWS V14.01,2013-03-20 18:18:00,
2013-03-20 14:23:00,93.6,16.8,29.88,North,0,0.0,0.0,6,0.00,,SCT120,0.00,VWS V14.01,2013-03-20 18:23:00,
2013-03-20 14:28:00,93.7,16.9,29.88,North,0,0.0,0.0,6,0.00,,SCT120,0.00,VWS V14.01,2013-03-20 18:28:00,
2013-03-20 14:33:00,93.2,16.5,29.88,North,0,0.0,0.0,6,0.00,,SCT120,0.00,VWS V14.01,2013-03-20 18:33:00,
2013-03-20 14:38:00,93.6,16.8,29.88,North,0,0.0,0.0,6,0.00,,SCT120,0.00,VWS V14.01,2013-03-20 18:38:00,
2013-03-20 14:43:00,93.4,16.6,29.88,North,0,0.0,0.0,6,0.00,,SCT120,0.00,VWS V14.01,2013-03-20 18:43:00,
2013-03-20 14:48:00,93.7,16.9,29.88,North,0,0.0,0.0,6,0.00,,SCT120,0.00,VWS V14.01,2013-03-20 18:48:00,
2013-03-20 14:53:00,93.6,16.8,29.88,North,0,0.0,0.0,6,0.00,,SCT120,0.00,VWS V14.01,2013-03-20 18:53:00,
2013-03-20 14:58:00,93.7,16.9,29.88,North,0,0.0,0.0,6,0.00,,SCT120,0.00,VWS V14.01,2013-03-20 18:58:00,
2013-03-20 15:03:00,93.2,16.5,29.88,North,0,0.0,0.0,6,0.00,,SCT120,0.00,VWS V14.01,2013-03-20 19:03:00,
2013-03-20 15:08:00,92.8,19.8,29.88,North,0,0.0,0.0,7,0.00,,SCT120,0.00,VWS V14.01,2013-03-20 19:08:00,
2013-03-20 15:13:00,93.4,16.6,29.88,North,0,0.0,0.0,6,0.00,,SCT120,0.00,VWS V14.01,2013-03-20 19:13:00,
2013-03-20 15:18:00,93.2,16.5,29.88,North,0,0.0,0.0,6,0.00,,SCT120,0.00,VWS V14.01,2013-03-20 19:18:00,
2013-03-20 15:23:00,93.4,16.6,29.85,North,0,0.0,0.0,6,0.00,,SCT120,0.00,VWS V14.01,2013-03-20 19:23:00,
2013-03-20 15:28:00,93.6,16.8,29.85,North,0,0.0,0.0,6,0.00,,SCT120,0.00,VWS V14.01,2013-03-20 19:28:00,
2013-03-20 15:33:00,93.4,16.6,29.85,North,0,0.0,0.0,6,0.00,,SCT120,0.00,VWS V14.01,2013-03-20 19:33:00,
2013-03-20 15:38:00,93.6,16.8,29.85,North,0,0.0,0.0,6,0.00,,SCT120,0.00,VWS V14.01,2013-03-20 19:38:00,
2013-03-20 15:43:00,93.2,16.5,29.85,North,0,0.0,0.0,6,0.00,,SCT120,0.00,VWS V14.01,2013-03-20 19:43:00,
2013-03-20 15:48:00,92.5,19.6,29.85,North,0,0.0,0.0,7,0.00,,SCT120,0.00,VWS V14.01,2013-03-20 19:48:00,
2013-03-20 15:53:00,92.7,19.7,29.85,North,0,0.0,0.0,7,0.00,,SCT120,0.00,VWS V14.01,2013-03-20 19:53:00,
2013-03-20 15:58:00,92.1,19.3,29.85,North,0,0.0,0.0,7,0.00,,SCT120,0.00,VWS V14.01,2013-03-20 19:58:00,
2013-03-20 16:03:00,91.4,18.8,29.85,North,0,0.0,0.0,7,0.00,,SCT120,0.00,VWS V14.01,2013-03-20 20:03:00,
2013-03-20 16:08:00,91.4,18.8,29.85,North,0,0.0,0.0,7,0.00,,SCT120,0.00,VWS V14.01,2013-03-20 20:08:00,
2013-03-20 16:13:00,91.8,19.0,29.85,North,0,0.0,0.0,7,0.00,,SCT120,0.00,VWS V14.01,2013-03-20 20:13:00,
2013-03-20 16:19:00,91.8,19.0,29.85,North,0,0.0,0.0,7,0.00,,SCT120,0.00,VWS V14.01,2013-03-20 20:19:00,
2013-03-20 16:24:00,91.9,19.2,29.85,North,0,0.0,0.0,7,0.00,,SCT120,0.00,VWS V14.01,2013-03-20 20:24:00,
2013-03-20 16:29:00,92.1,19.3,29.85,North,0,0.0,0.0,7,0.00,,SCT120,0.00,VWS V14.01,2013-03-20 20:29:00,
2013-03-20 16:33:00,91.8,19.0,29.85,North,0,0.0,0.0,7,0.00,,SCT120,0.00,VWS V14.01,2013-03-20 20:33:00,
2013-03-20 16:38:00,91.4,18.8,29.85,North,0,0.0,0.0,7,0.00,,SCT120,0.00,VWS V14.01,2013-03-20 20:38:00,
2013-03-20 16:43:00,91.0,18.5,29.85,North,0,0.0,0.0,7,0.00,,SCT120,0.00,VWS V14.01,2013-03-20 20:43:00,
2013-03-20 16:48:00,90.7,18.2,29.85,North,0,0.0,0.0,7,0.00,,SCT120,0.00,VWS V14.01,2013-03-20 20:48:00,
2013-03-20 16:53:00,90.0,26.2,29.85,North,0,0.0,0.0,10,0.00,,SCT120,0.00,VWS V14.01,2013-03-20 20:53:00,
2013-03-20 16:59:00,89.2,25.6,29.85,North,0,0.0,0.0,10,0.00,,SCT120,0.00,VWS V14.01,2013-03-20 20:59:00,
2013-03-20 17:04:00,88.9,25.3,29.85,North,0,0.0,0.0,10,0.00,,SCT120,0.00,VWS V14.01,2013-03-20 21:04:00,
2013-03-20 17:09:00,88.3,31.3,29.85,North,0,0.0,0.0,13,0.00,,SCT120,0.00,VWS V14.01,2013-03-20 21:09:00,
2013-03-20 17:14:00,88.2,34.7,29.85,North,0,0.0,0.0,15,0.00,,SCT120,0.00,VWS V14.01,2013-03-20 21:14:00,
2013-03-20 17:19:00,88.7,31.6,29.85,North,0,0.0,0.0,13,0.00,,SCT120,0.00,VWS V14.01,2013-03-20 21:19:00,
2013-03-20 17:24:00,88.7,25.2,29.85,North,0,0.0,0.0,10,0.00,,SCT120,0.00,VWS V14.01,2013-03-20 21:24:00,
2013-03-20 17:29:00,88.5,31.5,29.85,North,0,0.0,0.0,13,0.00,,SCT120,0.00,VWS V14.01,2013-03-20 21:29:00,
2013-03-20 17:34:00,87.8,30.9,29.85,North,0,0.0,0.0,13,0.00,,SCT120,0.00,VWS V14.01,2013-03-20 21:34:00,
2013-03-20 17:39:00,87.6,35.9,29.85,North,0,0.0,0.0,16,0.00,,SCT120,0.00,VWS V14.01,2013-03-20 21:39:00,
2013-03-20 17:44:00,87.6,38.9,29.85,North,0,0.0,0.0,18,0.00,,SCT120,0.00,VWS V14.01,2013-03-20 21:44:00,
2013-03-20 17:49:00,87.4,38.8,29.85,North,0,0.0,0.0,18,0.00,,SCT120,0.00,VWS V14.01,2013-03-20 21:49:00,
2013-03-20 17:54:00,87.4,38.8,29.85,North,0,0.0,0.0,18,0.00,,SCT120,0.00,VWS V14.01,2013-03-20 21:54:00,
2013-03-20 17:59:00,87.3,38.6,29.85,North,0,0.0,0.0,18,0.00,,SCT120,0.00,VWS V14.01,2013-03-20 21:59:00,
2013-03-20 18:04:00,87.1,39.9,29.85,North,0,0.0,0.0,19,0.00,,SCT120,0.00,VWS V14.01,2013-03-20 22:04:00,
2013-03-20 18:09:00,86.9,39.7,29.88,North,0,0.0,0.0,19,0.00,,SCT120,0.00,VWS V14.01,2013-03-20 22:09:00,
2013-03-20 18:14:00,86.5,39.4,29.88,North,0,0.0,0.0,19,0.00,,SCT120,0.00,VWS V14.01,2013-03-20 22:14:00,
2013-03-20 18:19:00,86.0,39.0,29.88,North,0,0.0,0.0,19,0.00,,SCT120,0.00,VWS V14.01,2013-03-20 22:19:00,
2013-03-20 18:24:00,85.6,40.0,29.88,North,0,0.0,0.0,20,0.00,,SCT120,0.00,VWS V14.01,2013-03-20 22:24:00,
2013-03-20 18:29:00,85.1,40.8,29.88,North,0,0.0,0.0,21,0.00,,SCT120,0.00,VWS V14.01,2013-03-20 22:29:00,
2013-03-20 18:34:00,85.1,40.8,29.88,North,0,0.0,0.0,21,0.00,,SCT120,0.00,VWS V14.01,2013-03-20 22:34:00,
2013-03-20 18:39:00,85.1,40.8,29.88,North,0,0.0,0.0,21,0.00,,SCT120,0.00,VWS V14.01,2013-03-20 22:39:00,
2013-03-20 18:44:00,85.1,40.8,29.88,North,0,0.0,0.0,21,0.00,,SCT120,0.00,VWS V14.01,2013-03-20 22:44:00,
2013-03-20 18:49:00,84.9,41.9,29.88,North,0,0.0,0.0,22,0.00,,SCT120,0.00,VWS V14.01,2013-03-20 22:49:00,
2013-03-20 18:54:00,84.7,41.7,29.88,North,0,0.0,0.0,22,0.00,,SCT120,0.00,VWS V14.01,2013-03-20 22:54:00,
2013-03-20 18:59:00,84.6,42.7,29.88,North,0,0.0,0.0,23,0.00,,SCT120,0.00,VWS V14.01,2013-03-20 22:59:00,
2013-03-20 19:04:00,84.4,43.7,29.88,North,0,0.0,0.0,24,0.00,,SCT120,0.00,VWS V14.01,2013-03-20 23:04:00,
2013-03-20 19:09:00,84.2,45.6,29.88,North,0,0.0,0.0,26,0.00,,SCT120,0.00,VWS V14.01,2013-03-20 23:09:00,
2013-03-20 19:14:00,84.0,46.5,29.88,North,0,0.0,0.0,27,0.00,,SCT120,0.00,VWS V14.01,2013-03-20 23:14:00,
2013-03-20 19:19:00,83.7,48.1,29.88,North,0,0.0,0.0,29,0.00,,SCT120,0.00,VWS V14.01,2013-03-20 23:19:00,
2013-03-20 19:24:00,83.5,47.9,29.88,North,0,0.0,0.0,29,0.00,,SCT120,0.00,VWS V14.01,2013-03-20 23:24:00,
2013-03-20 19:29:00,83.3,48.7,29.88,North,0,0.0,0.0,30,0.00,,SCT120,0.00,VWS V14.01,2013-03-20 23:29:00,
2013-03-20 19:34:00,83.1,48.5,29.88,North,0,0.0,0.0,30,0.00,,SCT120,0.00,VWS V14.01,2013-03-20 23:34:00,
2013-03-20 19:39:00,83.1,49.4,29.88,North,0,0.0,0.0,31,0.00,,SCT120,0.00,VWS V14.01,2013-03-20 23:39:00,
2013-03-20 19:44:00,82.9,49.2,29.88,North,0,0.0,0.0,31,0.00,,SCT120,0.00,VWS V14.01,2013-03-20 23:44:00,
2013-03-20 19:49:00,82.9,50.1,29.88,North,0,0.0,0.0,32,0.00,,SCT120,0.00,VWS V14.01,2013-03-20 23:49:00,
2013-03-20 19:54:00,82.8,49.9,29.88,North,0,0.0,0.0,32,0.00,,SCT120,0.00,VWS V14.01,2013-03-20 23:54:00,
2013-03-20 19:59:00,82.8,49.9,29.88,North,0,0.0,0.0,32,0.00,,SCT120,0.00,VWS V14.01,2013-03-20 23:59:00,
2013-03-20 20:04:00,82.6,49.8,29.88,North,0,0.0,0.0,32,0.00,,SCT120,0.00,VWS V14.01,2013-03-21 00:04:00,
2013-03-20 20:09:00,82.6,50.6,29.88,North,0,0.0,0.0,33,0.00,,SCT120,0.00,VWS V14.01,2013-03-21 00:09:00,
2013-03-20 20:14:00,82.6,51.4,29.88,North,0,0.0,0.0,34,0.00,,SCT120,0.00,VWS V14.01,2013-03-21 00:14:00,
2013-03-20 20:19:00,82.4,51.2,29.88,North,0,0.0,0.0,34,0.00,,SCT120,0.00,VWS V14.01,2013-03-21 00:19:00,
2013-03-20 20:24:00,82.2,51.9,29.91,North,0,0.0,0.0,35,0.00,,SCT120,0.00,VWS V14.01,2013-03-21 00:24:00,
2013-03-20 20:29:00,82.0,52.5,29.91,North,0,0.0,0.0,36,0.00,,SCT120,0.00,VWS V14.01,2013-03-21 00:29:00,
2013-03-20 20:34:00,81.7,52.9,29.91,North,0,0.0,0.0,37,0.00,,SCT120,0.00,VWS V14.01,2013-03-21 00:34:00,
2013-03-20 20:39:00,81.7,53.6,29.91,North,0,0.0,0.0,38,0.00,,SCT120,0.00,VWS V14.01,2013-03-21 00:39:00,
2013-03-20 20:44:00,81.7,53.6,29.91,North,0,0.0,0.0,38,0.00,,SCT120,0.00,VWS V14.01,2013-03-21 00:44:00,
2013-03-20 20:49:00,81.7,53.6,29.91,North,0,0.0,0.0,38,0.00,,SCT120,0.00,VWS V14.01,2013-03-21 00:49:00,
2013-03-20 20:54:00,81.5,54.2,29.91,North,0,0.0,0.0,39,0.00,,SCT120,0.00,VWS V14.01,2013-03-21 00:54:00,
2013-03-20 20:59:00,81.5,54.2,29.91,North,0,0.0,0.0,39,0.00,,SCT120,0.00,VWS V14.01,2013-03-21 00:59:00,
2013-03-20 21:04:00,81.5,54.2,29.91,North,0,0.0,0.0,39,0.00,,SCT120,0.00,VWS V14.01,2013-03-21 01:04:00,
2013-03-20 21:09:00,81.5,54.2,29.91,North,0,0.0,0.0,39,0.00,,SCT120,0.00,VWS V14.01,2013-03-21 01:09:00,
2013-03-20 21:14:00,81.5,54.2,29.91,North,0,0.0,0.0,39,0.00,,SCT120,0.00,VWS V14.01,2013-03-21 01:14:00,
2013-03-20 21:19:00,81.5,54.2,29.91,North,0,0.0,0.0,39,0.00,,SCT120,0.00,VWS V14.01,2013-03-21 01:19:00,
2013-03-20 21:24:00,81.5,54.2,29.91,North,0,0.0,0.0,39,0.00,,SCT120,0.00,VWS V14.01,2013-03-21 01:24:00,
2013-03-20 21:29:00,81.5,54.2,29.91,North,0,0.0,0.0,39,0.00,,SCT120,0.00,VWS V14.01,2013-03-21 01:29:00,
2013-03-20 21:34:00,81.7,54.3,29.91,North,0,0.0,0.0,39,0.00,,SCT120,0.00,VWS V14.01,2013-03-21 01:34:00,
2013-03-20 21:39:00,81.5,53.5,29.91,North,0,0.0,0.0,38,0.00,,SCT120,0.00,VWS V14.01,2013-03-21 01:39:00,
2013-03-20 21:44:00,81.5,53.5,29.91,North,0,0.0,0.0,38,0.00,,SCT120,0.00,VWS V14.01,2013-03-21 01:44:00,
2013-03-20 21:49:00,81.5,53.5,29.91,North,0,0.0,0.0,38,0.00,,SCT120,0.00,VWS V14.01,2013-03-21 01:49:00,
2013-03-20 21:54:00,81.3,53.3,29.91,North,0,0.0,0.0,38,0.00,,SCT120,0.00,VWS V14.01,2013-03-21 01:54:00,
2013-03-20 21:59:00,81.3,53.3,29.91,North,0,0.0,0.0,38,0.00,,SCT120,0.00,VWS V14.01,2013-03-21 01:59:00,
2013-03-20 22:04:00,81.1,53.9,29.91,North,0,0.0,0.0,39,0.00,,SCT120,0.00,VWS V14.01,2013-03-21 02:04:00,
2013-03-20 22:09:00,81.1,53.9,29.91,North,0,0.0,0.0,39,0.00,,SCT120,0.00,VWS V14.01,2013-03-21 02:09:00,
2013-03-20 22:14:00,81.0,53.7,29.91,North,0,0.0,0.0,39,0.00,,SCT120,0.00,VWS V14.01,2013-03-21 02:14:00,
2013-03-20 22:19:00,80.8,53.5,29.91,North,0,0.0,0.0,39,0.00,,SCT120,0.00,VWS V14.01,2013-03-21 02:19:00,
2013-03-20 22:24:00,80.8,54.2,29.91,North,0,0.0,0.0,40,0.00,,SCT120,0.00,VWS V14.01,2013-03-21 02:24:00,
2013-03-20 22:29:00,80.6,54.1,29.91,North,0,0.0,0.0,40,0.00,,SCT120,0.00,VWS V14.01,2013-03-21 02:29:00,
2013-03-20 22:34:00,80.6,54.1,29.91,North,0,0.0,0.0,40,0.00,,SCT120,0.00,VWS V14.01,2013-03-21 02:34:00,
2013-03-20 22:39:00,80.6,54.1,29.91,North,0,0.0,0.0,40,0.00,,SCT120,0.00,VWS V14.01,2013-03-21 02:39:00,
2013-03-20 22:44:00,80.6,54.8,29.91,North,0,0.0,0.0,41,0.00,,SCT120,0.00,VWS V14.01,2013-03-21 02:44:00,
2013-03-20 22:49:00,80.4,54.6,29.91,North,0,0.0,0.0,41,0.00,,SCT120,0.00,VWS V14.01,2013-03-21 02:49:00,
2013-03-20 22:54:00,80.2,55.1,29.91,North,0,0.0,0.0,42,0.00,,SCT120,0.00,VWS V14.01,2013-03-21 02:54:00,
2013-03-20 22:59:00,80.2,55.1,29.91,North,0,0.0,0.0,42,0.00,,SCT120,0.00,VWS V14.01,2013-03-21 02:59:00,
2013-03-20 23:04:00,80.2,55.7,29.91,North,0,0.0,0.0,43,0.00,,SCT120,0.00,VWS V14.01,2013-03-21 03:04:00,
2013-03-20 23:09:00,80.1,55.6,29.91,North,0,0.0,0.0,43,0.00,,SCT120,0.00,VWS V14.01,2013-03-21 03:09:00,
2013-03-20 23:14:00,80.1,55.6,29.91,North,0,0.0,0.0,43,0.00,,SCT120,0.00,VWS V14.01,2013-03-21 03:14:00,
2013-03-20 23:19:00,79.9,56.0,29.91,North,0,0.0,0.0,44,0.00,,SCT120,0.00,VWS V14.01,2013-03-21 03:19:00,
2013-03-20 23:24:00,79.7,55.9,29.91,North,0,0.0,0.0,44,0.00,,SCT120,0.00,VWS V14.01,2013-03-21 03:24:00,
2013-03-20 23:29:00,79.7,56.5,29.91,North,0,0.0,0.0,45,0.00,,SCT120,0.00,VWS V14.01,2013-03-21 03:29:00,
2013-03-20 23:34:00,79.5,57.0,29.91,North,0,0.0,0.0,46,0.00,,SCT120,0.00,VWS V14.01,2013-03-21 03:34:00,
2013-03-20 23:39:00,79.5,57.0,29.91,North,0,0.0,0.0,46,0.00,,SCT120,0.00,VWS V14.01,2013-03-21 03:39:00,
2013-03-20 23:44:00,79.5,57.5,29.91,North,0,0.0,0.0,47,0.00,,SCT120,0.00,VWS V14.01,2013-03-21 03:44:00,
2013-03-20 23:49:00,79.3,58.0,29.91,North,0,0.0,0.0,48,0.00,,SCT120,0.00,VWS V14.01,2013-03-21 03:49:00,
2013-03-20 23:54:00,79.2,57.8,29.91,North,0,0.0,0.0,48,0.00,,SCT120,0.00,VWS V14.01,2013-03-21 03:54:00,
2013-03-20 23:59:00,79.0,57.0,29.91,North,0,0.0,0.0,47,0.00,,SCT120,0.00,VWS V14.01,2013-03-21 03:59:00,